createdAt,value
2022-08-02T00:04:36.408Z,980.11
2022-08-02T00:11:00.415Z,980.08
2022-08-02T00:17:33.001Z,980.06
2022-08-02T00:24:28.370Z,980.05
2022-08-02T00:31:13.460Z,980.09
2022-08-02T00:37:34.871Z,980.07
2022-08-02T00:44:13.633Z,980.01
2022-08-02T00:50:46.854Z,980
2022-08-02T00:57:14.137Z,979.99
2022-08-02T01:03:41.283Z,980.06
2022-08-02T01:10:06.143Z,980.05
2022-08-02T01:16:42.144Z,980.06
2022-08-02T01:23:53.122Z,980.03
2022-08-02T01:30:52.155Z,980.04
2022-08-02T01:37:52.406Z,980.1
2022-08-02T01:44:48.378Z,980.17
2022-08-02T01:51:37.472Z,980.14
2022-08-02T01:58:24.028Z,980.11
2022-08-02T02:05:06.495Z,980.14
2022-08-02T02:12:03.715Z,980.03
2022-08-02T02:18:45.434Z,979.99
2022-08-02T02:25:35.710Z,979.93
2022-08-02T02:32:28.132Z,979.85
2022-08-02T02:39:18.207Z,979.84
2022-08-02T02:45:54.519Z,979.95
2022-08-02T02:52:23.751Z,979.96
2022-08-02T02:58:56.363Z,979.98
2022-08-02T03:05:30.693Z,980.03
2022-08-02T03:11:55.330Z,980.05
2022-08-02T03:18:40.243Z,980.02
2022-08-02T03:25:04.611Z,979.96
2022-08-02T03:31:35.902Z,979.92
2022-08-02T03:38:12.696Z,979.85
2022-08-02T03:44:57.127Z,979.87
2022-08-02T03:51:41.041Z,979.9
2022-08-02T03:58:10.245Z,979.83
2022-08-02T04:04:50.950Z,979.84
2022-08-02T04:11:28.560Z,979.82
2022-08-02T04:18:07.109Z,979.83
2022-08-02T04:25:18.250Z,979.93
2022-08-02T04:31:54.717Z,979.95
2022-08-02T04:38:22.816Z,980.01
2022-08-02T04:45:00.517Z,980.09
2022-08-02T04:51:43.285Z,980.07
2022-08-02T04:58:41.221Z,980.06
2022-08-02T05:04:51.142Z,980.04
2022-08-02T05:11:20.967Z,980.04
2022-08-02T05:17:49.252Z,980.03
2022-08-02T05:24:20.619Z,980.19
2022-08-02T05:30:44.683Z,980.25
2022-08-02T05:37:14.286Z,980.21
2022-08-02T05:43:51.568Z,980.19
2022-08-02T05:50:14.953Z,980.18
2022-08-02T05:57:15.622Z,980.13
2022-08-02T06:04:16.851Z,980.22
2022-08-02T06:11:10.291Z,980.23
2022-08-02T06:17:52.484Z,980.27
2022-08-02T06:24:25.529Z,980.2
2022-08-02T06:30:53.272Z,980.17
2022-08-02T06:37:33.965Z,980.21
2022-08-02T06:44:53.071Z,980.24
2022-08-02T06:51:18.644Z,980.09
2022-08-02T06:57:42.653Z,980.16
2022-08-02T07:04:08.697Z,980.14
2022-08-02T07:10:36.174Z,980.14
2022-08-02T07:17:03.740Z,980.12
2022-08-02T07:23:26.821Z,980.17
2022-08-02T07:29:54.910Z,980.21
2022-08-02T07:36:23.540Z,980.13
2022-08-02T07:42:46.673Z,980.12
2022-08-02T07:49:11.562Z,980.01
2022-08-02T07:55:41.700Z,980
2022-08-02T08:02:10.114Z,979.9
2022-08-02T08:08:42.892Z,979.89
2022-08-02T08:15:06.406Z,979.88
2022-08-02T08:21:32.378Z,979.96
2022-08-02T08:27:59.970Z,979.86
2022-08-02T08:34:25.158Z,979.98
2022-08-02T08:40:50.368Z,979.88
2022-08-02T08:47:14.376Z,979.93
2022-08-02T08:54:19.395Z,979.99
2022-08-02T09:00:58.441Z,979.94
2022-08-02T09:07:47.237Z,979.97
2022-08-02T09:14:35.282Z,980
2022-08-02T09:21:26.449Z,979.95
2022-08-02T09:28:40.075Z,979.9
2022-08-02T09:36:05.644Z,979.83
2022-08-02T09:42:31.855Z,979.84
2022-08-02T09:49:05.490Z,979.82
2022-08-02T09:55:48.348Z,979.78
2022-08-02T10:02:34.941Z,979.84
2022-08-02T10:09:05.696Z,979.82
2022-08-02T10:15:31.627Z,979.79
2022-08-02T10:22:05.758Z,979.67
2022-08-02T10:28:53.080Z,979.61
2022-08-02T10:35:43.965Z,979.59
2022-08-02T10:42:23.729Z,979.56
2022-08-02T10:49:40.438Z,979.44
2022-08-02T10:56:42.444Z,979.38
2022-08-02T11:03:41.107Z,979.34
2022-08-02T11:10:43.752Z,979.36
2022-08-02T11:17:23.435Z,979.27
2022-08-02T11:24:10.854Z,979.24
2022-08-02T11:31:03.949Z,979.11
2022-08-02T11:37:37.815Z,979.08
2022-08-02T11:44:16.001Z,979.14
2022-08-02T11:50:57.102Z,979.11
2022-08-02T11:58:04.040Z,979.13
2022-08-02T12:04:41.275Z,979.03
2022-08-02T12:11:38.931Z,978.95
2022-08-02T12:18:13.132Z,978.83
2022-08-02T12:24:39.015Z,978.78
2022-08-02T12:31:55.718Z,978.76
2022-08-02T12:38:33.211Z,978.78
2022-08-02T12:45:24.591Z,978.72
2022-08-02T12:52:07.705Z,978.71
2022-08-02T12:59:14.508Z,978.74
2022-08-02T13:06:23.275Z,978.63
2022-08-02T13:12:53.250Z,978.59
2022-08-02T13:19:32.002Z,978.56
2022-08-02T13:26:07.397Z,978.5
2022-08-02T13:32:28.935Z,978.47
2022-08-02T13:38:58.518Z,978.39
2022-08-02T13:45:23.425Z,978.33
2022-08-02T13:51:47.831Z,978.28
2022-08-02T13:58:11.008Z,978.28
2022-08-02T14:04:47.013Z,978.16
2022-08-02T14:11:11.711Z,978.15
2022-08-02T14:17:42.993Z,978.05
2022-08-02T14:24:20.799Z,978
2022-08-02T14:30:47.438Z,978.01
2022-08-02T14:37:16.696Z,978.01
2022-08-02T14:43:41.686Z,977.95
2022-08-02T14:50:05.390Z,977.92
2022-08-02T14:56:32.720Z,977.9
2022-08-02T15:02:56.450Z,977.9
2022-08-02T15:09:19.553Z,977.89
2022-08-02T15:15:48.170Z,977.89
2022-08-02T15:22:20.312Z,977.86
2022-08-02T15:28:43.631Z,977.84
2022-08-02T15:35:06.206Z,977.89
2022-08-02T15:41:28.589Z,977.83
2022-08-02T15:47:51.950Z,977.81
2022-08-02T15:54:17.426Z,977.79
2022-08-02T16:00:49.882Z,977.76
2022-08-02T16:07:13.819Z,977.78
2022-08-02T16:13:59.216Z,977.81
2022-08-02T16:20:25.573Z,977.79
2022-08-02T16:26:47.261Z,977.78
2022-08-02T16:33:11.855Z,977.77
2022-08-02T16:39:54.605Z,977.76
2022-08-02T16:46:22.714Z,977.69
2022-08-02T16:52:59.632Z,977.7
2022-08-02T17:06:32.035Z,977.59
2022-08-02T17:13:12.648Z,977.55
2022-08-02T17:19:39.754Z,977.54
2022-08-02T17:26:06.217Z,977.54
2022-08-02T17:32:46.637Z,977.53
2022-08-02T17:39:09.676Z,977.49
2022-08-02T17:45:59.467Z,977.56
2022-08-02T17:52:49.716Z,977.55
2022-08-02T17:59:21.536Z,977.55
2022-08-02T18:06:01.181Z,977.53
2022-08-02T18:12:35.155Z,977.52
2022-08-02T18:19:16.795Z,977.49
2022-08-02T18:25:56.256Z,977.51
2022-08-02T18:33:54.150Z,977.5
2022-08-02T18:39:32.939Z,977.5
2022-08-02T18:46:15.342Z,977.55
2022-08-02T18:52:48.270Z,977.55
2022-08-02T18:59:15.906Z,977.53
2022-08-02T19:05:54.318Z,977.56
2022-08-02T19:12:28.784Z,977.61
2022-08-02T19:18:56.183Z,977.57
2022-08-02T19:25:35.526Z,977.62
2022-08-02T19:32:39.516Z,977.68
2022-08-02T19:38:51.683Z,977.69
2022-08-02T19:45:24.726Z,977.73
2022-08-02T19:51:58.713Z,977.72
2022-08-02T19:58:28.158Z,977.73
2022-08-02T20:04:56.579Z,977.78
2022-08-02T20:11:18.722Z,977.74
2022-08-02T20:17:49.617Z,977.78
2022-08-02T20:24:11.095Z,977.81
2022-08-02T20:30:49.683Z,977.85
2022-08-02T20:37:56.665Z,977.87
2022-08-02T20:44:30.058Z,977.94
2022-08-02T20:50:42.746Z,977.93
2022-08-02T20:57:18.740Z,977.98
2022-08-02T21:03:58.838Z,977.97
2022-08-02T21:10:35.283Z,977.96
2022-08-02T21:17:05.547Z,977.95
2022-08-02T21:23:54.611Z,977.94
2022-08-02T21:30:37.047Z,977.93
2022-08-02T21:37:10.756Z,977.94
2022-08-02T21:43:39.695Z,977.94
2022-08-02T21:50:17.036Z,977.97
2022-08-02T21:56:56.712Z,978
2022-08-02T22:03:24.194Z,978.05
2022-08-02T22:09:56.545Z,978.07
2022-08-02T22:16:29.518Z,978.12
2022-08-02T22:22:53.894Z,978.13
2022-08-02T22:29:29.264Z,978.14
2022-08-02T22:36:04.696Z,978.17
2022-08-02T22:42:42.794Z,978.2
2022-08-02T22:55:46.809Z,978.19
2022-08-02T22:58:42.357Z,977.65
2022-08-02T23:02:15.899Z,978.2
2022-08-02T23:08:49.042Z,978.2
2022-08-02T23:15:19.923Z,978.23
2022-08-02T23:22:03.229Z,978.3
2022-08-02T23:28:49.998Z,978.32
2022-08-02T23:35:23.389Z,978.26
2022-08-02T23:41:56.017Z,978.23
2022-08-02T23:48:36.712Z,978.24
2022-08-02T23:55:03.792Z,978.25
